sensor_id;sensor_type;location;lat;lon;timestamp;P1;durP1;ratioP1;P2;durP2;ratioP2
62037;SDS011;47991;42.974;12.082;2022-10-31T00:01:22;6.30;;;2.10;;
62037;SDS011;47991;42.974;12.082;2022-10-31T00:03:54;6.40;;;2.60;;
62037;SDS011;47991;42.974;12.082;2022-10-31T00:06:22;4.80;;;2.20;;
62037;SDS011;47991;42.974;12.082;2022-10-31T00:08:54;6.10;;;2.40;;
62037;SDS011;47991;42.974;12.082;2022-10-31T00:11:23;5.60;;;2.00;;
62037;SDS011;47991;42.974;12.082;2022-10-31T00:13:51;4.80;;;2.00;;
62037;SDS011;47991;42.974;12.082;2022-10-31T00:16:20;7.70;;;2.10;;
62037;SDS011;47991;42.974;12.082;2022-10-31T00:18:57;6.40;;;2.20;;
62037;SDS011;47991;42.974;12.082;2022-10-31T00:21:26;5.70;;;2.00;;
62037;SDS011;47991;42.974;12.082;2022-10-31T00:23:54;8.20;;;2.40;;
62037;SDS011;47991;42.974;12.082;2022-10-31T00:26:22;6.40;;;2.40;;
62037;SDS011;47991;42.974;12.082;2022-10-31T00:28:49;10.10;;;2.50;;
62037;SDS011;47991;42.974;12.082;2022-10-31T00:31:17;8.90;;;2.30;;
62037;SDS011;47991;42.974;12.082;2022-10-31T00:33:45;7.00;;;2.30;;
62037;SDS011;47991;42.974;12.082;2022-10-31T00:36:14;6.10;;;2.10;;
62037;SDS011;47991;42.974;12.082;2022-10-31T00:38:43;7.50;;;2.70;;
62037;SDS011;47991;42.974;12.082;2022-10-31T00:41:13;8.20;;;2.50;;
62037;SDS011;47991;42.974;12.082;2022-10-31T00:43:42;5.50;;;2.10;;
62037;SDS011;47991;42.974;12.082;2022-10-31T00:46:10;7.90;;;2.60;;
62037;SDS011;47991;42.974;12.082;2022-10-31T00:48:39;6.20;;;2.30;;
62037;SDS011;47991;42.974;12.082;2022-10-31T00:51:07;6.80;;;2.30;;
62037;SDS011;47991;42.974;12.082;2022-10-31T00:53:35;5.80;;;2.20;;
62037;SDS011;47991;42.974;12.082;2022-10-31T00:56:03;5.30;;;2.50;;
62037;SDS011;47991;42.974;12.082;2022-10-31T00:58:32;7.80;;;2.40;;
62037;SDS011;47991;42.974;12.082;2022-10-31T01:00:59;7.60;;;2.40;;
62037;SDS011;47991;42.974;12.082;2022-10-31T01:03:28;5.10;;;2.20;;
62037;SDS011;47991;42.974;12.082;2022-10-31T01:06:02;5.20;;;2.10;;
62037;SDS011;47991;42.974;12.082;2022-10-31T01:08:33;5.80;;;2.20;;
62037;SDS011;47991;42.974;12.082;2022-10-31T01:11:13;5.80;;;2.50;;
62037;SDS011;47991;42.974;12.082;2022-10-31T01:13:42;8.90;;;2.30;;
62037;SDS011;47991;42.974;12.082;2022-10-31T01:16:17;6.70;;;2.30;;
62037;SDS011;47991;42.974;12.082;2022-10-31T01:18:47;5.50;;;2.60;;
62037;SDS011;47991;42.974;12.082;2022-10-31T01:21:17;4.30;;;2.20;;
62037;SDS011;47991;42.974;12.082;2022-10-31T01:23:50;8.20;;;2.60;;
62037;SDS011;47991;42.974;12.082;2022-10-31T01:26:20;9.20;;;2.60;;
62037;SDS011;47991;42.974;12.082;2022-10-31T01:28:50;8.40;;;2.50;;
62037;SDS011;47991;42.974;12.082;2022-10-31T01:31:20;6.70;;;2.50;;
62037;SDS011;47991;42.974;12.082;2022-10-31T01:33:49;7.50;;;2.60;;
62037;SDS011;47991;42.974;12.082;2022-10-31T01:36:18;7.80;;;2.60;;
62037;SDS011;47991;42.974;12.082;2022-10-31T01:38:52;7.30;;;2.60;;
62037;SDS011;47991;42.974;12.082;2022-10-31T01:41:22;6.70;;;2.50;;
62037;SDS011;47991;42.974;12.082;2022-10-31T01:43:58;7.20;;;2.40;;
62037;SDS011;47991;42.974;12.082;2022-10-31T01:47:00;6.20;;;2.70;;
62037;SDS011;47991;42.974;12.082;2022-10-31T01:49:37;6.20;;;2.40;;
62037;SDS011;47991;42.974;12.082;2022-10-31T01:52:44;9.50;;;2.80;;
62037;SDS011;47991;42.974;12.082;2022-10-31T01:55:15;10.40;;;2.80;;
62037;SDS011;47991;42.974;12.082;2022-10-31T01:57:50;8.00;;;2.50;;
62037;SDS011;47991;42.974;12.082;2022-10-31T02:00:22;7.70;;;2.80;;
62037;SDS011;47991;42.974;12.082;2022-10-31T02:02:50;6.90;;;2.90;;
62037;SDS011;47991;42.974;12.082;2022-10-31T02:05:20;5.90;;;2.40;;
62037;SDS011;47991;42.974;12.082;2022-10-31T02:07:57;7.90;;;3.00;;
62037;SDS011;47991;42.974;12.082;2022-10-31T02:10:34;6.60;;;2.90;;
62037;SDS011;47991;42.974;12.082;2022-10-31T02:13:05;7.40;;;2.60;;
62037;SDS011;47991;42.974;12.082;2022-10-31T02:15:36;8.70;;;3.10;;
62037;SDS011;47991;42.974;12.082;2022-10-31T02:18:05;7.60;;;2.50;;
62037;SDS011;47991;42.974;12.082;2022-10-31T02:23:54;6.10;;;2.50;;
62037;SDS011;47991;42.974;12.082;2022-10-31T02:32:25;7.60;;;2.80;;
62037;SDS011;47991;42.974;12.082;2022-10-31T02:35:23;7.30;;;2.90;;
62037;SDS011;47991;42.974;12.082;2022-10-31T02:40:52;9.20;;;2.30;;
62037;SDS011;47991;42.974;12.082;2022-10-31T02:46:28;8.40;;;2.80;;
62037;SDS011;47991;42.974;12.082;2022-10-31T02:49:07;7.70;;;2.40;;
62037;SDS011;47991;42.974;12.082;2022-10-31T02:52:16;9.40;;;3.20;;
62037;SDS011;47991;42.974;12.082;2022-10-31T02:57:39;6.20;;;2.70;;
62037;SDS011;47991;42.974;12.082;2022-10-31T03:00:09;6.80;;;2.60;;
62037;SDS011;47991;42.974;12.082;2022-10-31T03:10:56;8.00;;;2.70;;
62037;SDS011;47991;42.974;12.082;2022-10-31T03:13:39;7.70;;;2.70;;
62037;SDS011;47991;42.974;12.082;2022-10-31T03:19:08;7.50;;;2.60;;
62037;SDS011;47991;42.974;12.082;2022-10-31T03:21:54;7.30;;;2.60;;
62037;SDS011;47991;42.974;12.082;2022-10-31T03:24:29;6.70;;;2.70;;
62037;SDS011;47991;42.974;12.082;2022-10-31T03:26:59;5.60;;;2.50;;
62037;SDS011;47991;42.974;12.082;2022-10-31T03:29:31;8.00;;;3.00;;
62037;SDS011;47991;42.974;12.082;2022-10-31T03:32:09;9.00;;;2.80;;
62037;SDS011;47991;42.974;12.082;2022-10-31T03:34:45;8.10;;;2.80;;
62037;SDS011;47991;42.974;12.082;2022-10-31T03:37:16;11.80;;;3.30;;
62037;SDS011;47991;42.974;12.082;2022-10-31T03:39:46;7.50;;;2.80;;
62037;SDS011;47991;42.974;12.082;2022-10-31T03:42:25;8.40;;;2.90;;
62037;SDS011;47991;42.974;12.082;2022-10-31T03:47:30;6.80;;;2.70;;
62037;SDS011;47991;42.974;12.082;2022-10-31T03:49:59;9.20;;;2.90;;
62037;SDS011;47991;42.974;12.082;2022-10-31T03:52:33;9.20;;;3.30;;
62037;SDS011;47991;42.974;12.082;2022-10-31T03:55:06;7.10;;;3.10;;
62037;SDS011;47991;42.974;12.082;2022-10-31T03:57:43;7.40;;;2.80;;
62037;SDS011;47991;42.974;12.082;2022-10-31T04:00:21;8.60;;;2.90;;
62037;SDS011;47991;42.974;12.082;2022-10-31T04:05:19;9.10;;;3.00;;
62037;SDS011;47991;42.974;12.082;2022-10-31T04:07:49;7.90;;;3.10;;
62037;SDS011;47991;42.974;12.082;2022-10-31T04:10:20;10.00;;;2.90;;
62037;SDS011;47991;42.974;12.082;2022-10-31T04:13:00;9.20;;;3.40;;
62037;SDS011;47991;42.974;12.082;2022-10-31T04:15:39;7.80;;;3.00;;
62037;SDS011;47991;42.974;12.082;2022-10-31T04:18:10;8.60;;;2.90;;
62037;SDS011;47991;42.974;12.082;2022-10-31T04:20:39;8.10;;;3.00;;
62037;SDS011;47991;42.974;12.082;2022-10-31T04:23:13;7.50;;;2.80;;
62037;SDS011;47991;42.974;12.082;2022-10-31T04:25:46;8.70;;;3.10;;
62037;SDS011;47991;42.974;12.082;2022-10-31T04:28:13;7.70;;;2.60;;
62037;SDS011;47991;42.974;12.082;2022-10-31T04:30:43;7.60;;;3.20;;
62037;SDS011;47991;42.974;12.082;2022-10-31T04:33:11;7.70;;;3.10;;
62037;SDS011;47991;42.974;12.082;2022-10-31T04:35:42;8.00;;;3.00;;
62037;SDS011;47991;42.974;12.082;2022-10-31T04:38:09;6.60;;;2.70;;
62037;SDS011;47991;42.974;12.082;2022-10-31T04:40:38;10.50;;;3.50;;
62037;SDS011;47991;42.974;12.082;2022-10-31T04:43:15;9.00;;;3.10;;
62037;SDS011;47991;42.974;12.082;2022-10-31T04:45:43;7.60;;;3.50;;
62037;SDS011;47991;42.974;12.082;2022-10-31T04:48:11;7.90;;;3.00;;
62037;SDS011;47991;42.974;12.082;2022-10-31T04:50:40;7.90;;;2.90;;
62037;SDS011;47991;42.974;12.082;2022-10-31T04:53:08;8.30;;;3.00;;
62037;SDS011;47991;42.974;12.082;2022-10-31T04:55:42;6.70;;;2.70;;
62037;SDS011;47991;42.974;12.082;2022-10-31T05:00:52;7.60;;;3.20;;
62037;SDS011;47991;42.974;12.082;2022-10-31T05:03:21;10.00;;;3.10;;
62037;SDS011;47991;42.974;12.082;2022-10-31T05:05:50;8.10;;;3.20;;
62037;SDS011;47991;42.974;12.082;2022-10-31T05:08:18;7.60;;;3.30;;
62037;SDS011;47991;42.974;12.082;2022-10-31T05:10:49;8.30;;;3.20;;
62037;SDS011;47991;42.974;12.082;2022-10-31T05:13:16;8.30;;;3.00;;
62037;SDS011;47991;42.974;12.082;2022-10-31T05:16:17;8.60;;;3.20;;
62037;SDS011;47991;42.974;12.082;2022-10-31T05:19:22;7.70;;;3.30;;
62037;SDS011;47991;42.974;12.082;2022-10-31T05:22:08;8.30;;;3.20;;
62037;SDS011;47991;42.974;12.082;2022-10-31T05:24:37;8.20;;;3.00;;
62037;SDS011;47991;42.974;12.082;2022-10-31T05:27:04;8.20;;;3.10;;
62037;SDS011;47991;42.974;12.082;2022-10-31T05:29:32;9.10;;;3.20;;
62037;SDS011;47991;42.974;12.082;2022-10-31T05:32:00;7.00;;;3.20;;
62037;SDS011;47991;42.974;12.082;2022-10-31T05:35:00;11.70;;;4.00;;
62037;SDS011;47991;42.974;12.082;2022-10-31T05:38:00;9.40;;;3.70;;
62037;SDS011;47991;42.974;12.082;2022-10-31T05:40:29;11.70;;;4.00;;
62037;SDS011;47991;42.974;12.082;2022-10-31T05:42:57;10.50;;;3.50;;
62037;SDS011;47991;42.974;12.082;2022-10-31T05:45:25;7.60;;;3.30;;
62037;SDS011;47991;42.974;12.082;2022-10-31T05:48:00;7.30;;;3.70;;
62037;SDS011;47991;42.974;12.082;2022-10-31T05:51:08;8.70;;;3.50;;
62037;SDS011;47991;42.974;12.082;2022-10-31T05:53:35;9.00;;;3.50;;
62037;SDS011;47991;42.974;12.082;2022-10-31T05:56:04;9.90;;;3.40;;
62037;SDS011;47991;42.974;12.082;2022-10-31T05:58:32;10.10;;;3.30;;
62037;SDS011;47991;42.974;12.082;2022-10-31T06:01:03;8.30;;;3.50;;
62037;SDS011;47991;42.974;12.082;2022-10-31T06:03:33;8.50;;;3.60;;
62037;SDS011;47991;42.974;12.082;2022-10-31T06:06:03;11.10;;;3.50;;
62037;SDS011;47991;42.974;12.082;2022-10-31T06:08:36;5.80;;;2.90;;
62037;SDS011;47991;42.974;12.082;2022-10-31T06:11:06;9.30;;;3.30;;
62037;SDS011;47991;42.974;12.082;2022-10-31T06:13:54;7.60;;;3.10;;
62037;SDS011;47991;42.974;12.082;2022-10-31T06:16:34;9.60;;;3.70;;
62037;SDS011;47991;42.974;12.082;2022-10-31T06:19:15;7.10;;;3.00;;
62037;SDS011;47991;42.974;12.082;2022-10-31T06:21:43;8.40;;;3.20;;
62037;SDS011;47991;42.974;12.082;2022-10-31T06:24:10;9.30;;;3.10;;
62037;SDS011;47991;42.974;12.082;2022-10-31T06:26:59;7.00;;;3.20;;
62037;SDS011;47991;42.974;12.082;2022-10-31T06:29:27;7.30;;;3.00;;
62037;SDS011;47991;42.974;12.082;2022-10-31T06:32:04;7.40;;;3.20;;
62037;SDS011;47991;42.974;12.082;2022-10-31T06:34:36;7.60;;;2.90;;
62037;SDS011;47991;42.974;12.082;2022-10-31T06:37:03;7.40;;;2.80;;
62037;SDS011;47991;42.974;12.082;2022-10-31T06:39:39;9.10;;;2.90;;
62037;SDS011;47991;42.974;12.082;2022-10-31T06:42:09;6.60;;;2.90;;
62037;SDS011;47991;42.974;12.082;2022-10-31T06:44:36;8.00;;;3.00;;
62037;SDS011;47991;42.974;12.082;2022-10-31T06:47:22;7.60;;;3.10;;
62037;SDS011;47991;42.974;12.082;2022-10-31T06:49:59;8.60;;;3.70;;
62037;SDS011;47991;42.974;12.082;2022-10-31T06:52:26;8.30;;;3.50;;
62037;SDS011;47991;42.974;12.082;2022-10-31T06:54:54;9.40;;;3.50;;
62037;SDS011;47991;42.974;12.082;2022-10-31T06:57:23;9.40;;;3.30;;
62037;SDS011;47991;42.974;12.082;2022-10-31T06:59:50;10.80;;;4.10;;
62037;SDS011;47991;42.974;12.082;2022-10-31T07:02:30;10.30;;;3.70;;
62037;SDS011;47991;42.974;12.082;2022-10-31T07:04:58;11.10;;;3.60;;
62037;SDS011;47991;42.974;12.082;2022-10-31T07:07:26;7.50;;;3.30;;
62037;SDS011;47991;42.974;12.082;2022-10-31T07:09:54;7.70;;;3.30;;
62037;SDS011;47991;42.974;12.082;2022-10-31T07:12:37;11.00;;;3.40;;
62037;SDS011;47991;42.974;12.082;2022-10-31T07:15:04;13.00;;;3.70;;
62037;SDS011;47991;42.974;12.082;2022-10-31T07:17:33;7.40;;;3.20;;
62037;SDS011;47991;42.974;12.082;2022-10-31T07:20:00;8.70;;;3.10;;
62037;SDS011;47991;42.974;12.082;2022-10-31T07:22:36;8.70;;;3.20;;
62037;SDS011;47991;42.974;12.082;2022-10-31T07:25:04;10.30;;;3.40;;
62037;SDS011;47991;42.974;12.082;2022-10-31T07:28:01;13.00;;;3.80;;
62037;SDS011;47991;42.974;12.082;2022-10-31T07:30:29;10.20;;;3.50;;
62037;SDS011;47991;42.974;12.082;2022-10-31T07:32:57;8.50;;;3.20;;
62037;SDS011;47991;42.974;12.082;2022-10-31T07:35:28;9.30;;;4.10;;
62037;SDS011;47991;42.974;12.082;2022-10-31T07:38:05;9.10;;;3.70;;
62037;SDS011;47991;42.974;12.082;2022-10-31T07:40:35;9.60;;;3.70;;
62037;SDS011;47991;42.974;12.082;2022-10-31T07:43:02;11.20;;;3.90;;
62037;SDS011;47991;42.974;12.082;2022-10-31T07:45:48;11.20;;;4.30;;
62037;SDS011;47991;42.974;12.082;2022-10-31T07:48:38;11.60;;;3.90;;
62037;SDS011;47991;42.974;12.082;2022-10-31T07:51:24;11.10;;;4.00;;
62037;SDS011;47991;42.974;12.082;2022-10-31T07:54:10;8.10;;;3.40;;
62037;SDS011;47991;42.974;12.082;2022-10-31T07:56:38;8.30;;;3.50;;
62037;SDS011;47991;42.974;12.082;2022-10-31T07:59:06;7.80;;;3.60;;
62037;SDS011;47991;42.974;12.082;2022-10-31T08:01:34;7.30;;;3.10;;
62037;SDS011;47991;42.974;12.082;2022-10-31T08:04:26;8.40;;;3.60;;
62037;SDS011;47991;42.974;12.082;2022-10-31T08:07:12;9.90;;;3.60;;
62037;SDS011;47991;42.974;12.082;2022-10-31T08:09:39;7.50;;;3.80;;
62037;SDS011;47991;42.974;12.082;2022-10-31T08:12:16;8.10;;;3.20;;
62037;SDS011;47991;42.974;12.082;2022-10-31T08:14:44;8.70;;;3.60;;
62037;SDS011;47991;42.974;12.082;2022-10-31T08:17:13;9.00;;;3.60;;
62037;SDS011;47991;42.974;12.082;2022-10-31T08:19:47;7.80;;;3.50;;
62037;SDS011;47991;42.974;12.082;2022-10-31T08:22:16;7.70;;;3.40;;
62037;SDS011;47991;42.974;12.082;2022-10-31T08:24:44;8.50;;;3.00;;
62037;SDS011;47991;42.974;12.082;2022-10-31T08:27:12;8.00;;;3.50;;
62037;SDS011;47991;42.974;12.082;2022-10-31T08:29:39;8.10;;;3.30;;
62037;SDS011;47991;42.974;12.082;2022-10-31T08:32:07;7.80;;;3.30;;
62037;SDS011;47991;42.974;12.082;2022-10-31T08:34:55;15.20;;;3.80;;
62037;SDS011;47991;42.974;12.082;2022-10-31T08:37:38;6.40;;;3.00;;
62037;SDS011;47991;42.974;12.082;2022-10-31T08:40:06;10.40;;;3.50;;
62037;SDS011;47991;42.974;12.082;2022-10-31T08:42:35;9.00;;;4.00;;
62037;SDS011;47991;42.974;12.082;2022-10-31T08:45:03;9.20;;;3.80;;
62037;SDS011;47991;42.974;12.082;2022-10-31T08:47:31;14.70;;;3.80;;
62037;SDS011;47991;42.974;12.082;2022-10-31T08:49:59;11.30;;;3.40;;
62037;SDS011;47991;42.974;12.082;2022-10-31T08:52:26;7.90;;;3.40;;
62037;SDS011;47991;42.974;12.082;2022-10-31T08:54:58;8.70;;;3.20;;
62037;SDS011;47991;42.974;12.082;2022-10-31T08:57:53;8.10;;;3.30;;
62037;SDS011;47991;42.974;12.082;2022-10-31T09:00:23;8.60;;;3.60;;
62037;SDS011;47991;42.974;12.082;2022-10-31T09:03:06;9.80;;;3.80;;
62037;SDS011;47991;42.974;12.082;2022-10-31T09:05:37;8.50;;;3.50;;
62037;SDS011;47991;42.974;12.082;2022-10-31T09:08:04;8.40;;;3.30;;
62037;SDS011;47991;42.974;12.082;2022-10-31T09:10:33;6.50;;;3.10;;
62037;SDS011;47991;42.974;12.082;2022-10-31T09:15:58;8.50;;;2.90;;
62037;SDS011;47991;42.974;12.082;2022-10-31T09:18:26;8.00;;;3.40;;
62037;SDS011;47991;42.974;12.082;2022-10-31T09:21:00;7.00;;;3.20;;
62037;SDS011;47991;42.974;12.082;2022-10-31T09:25:59;7.00;;;3.00;;
62037;SDS011;47991;42.974;12.082;2022-10-31T09:28:30;6.00;;;2.60;;
62037;SDS011;47991;42.974;12.082;2022-10-31T09:31:03;7.30;;;2.90;;
62037;SDS011;47991;42.974;12.082;2022-10-31T09:33:54;9.30;;;3.20;;
62037;SDS011;47991;42.974;12.082;2022-10-31T09:36:39;10.50;;;3.50;;
62037;SDS011;47991;42.974;12.082;2022-10-31T09:39:09;10.20;;;3.60;;
62037;SDS011;47991;42.974;12.082;2022-10-31T09:47:21;8.30;;;3.30;;
62037;SDS011;47991;42.974;12.082;2022-10-31T09:53:37;6.90;;;2.70;;
62037;SDS011;47991;42.974;12.082;2022-10-31T09:56:29;9.10;;;2.70;;
62037;SDS011;47991;42.974;12.082;2022-10-31T09:59:00;6.90;;;3.00;;
62037;SDS011;47991;42.974;12.082;2022-10-31T10:04:28;9.40;;;3.10;;
62037;SDS011;47991;42.974;12.082;2022-10-31T10:07:17;6.10;;;2.40;;
62037;SDS011;47991;42.974;12.082;2022-10-31T10:10:32;8.50;;;2.80;;
62037;SDS011;47991;42.974;12.082;2022-10-31T10:13:40;7.30;;;2.60;;
62037;SDS011;47991;42.974;12.082;2022-10-31T10:19:30;13.00;;;3.10;;
62037;SDS011;47991;42.974;12.082;2022-10-31T10:22:39;7.80;;;2.80;;
62037;SDS011;47991;42.974;12.082;2022-10-31T10:25:14;6.10;;;2.80;;
62037;SDS011;47991;42.974;12.082;2022-10-31T10:30:40;6.70;;;2.80;;
62037;SDS011;47991;42.974;12.082;2022-10-31T10:33:15;8.50;;;2.80;;
62037;SDS011;47991;42.974;12.082;2022-10-31T10:35:49;11.60;;;2.40;;
62037;SDS011;47991;42.974;12.082;2022-10-31T10:41:14;8.70;;;2.90;;
62037;SDS011;47991;42.974;12.082;2022-10-31T10:43:44;8.40;;;2.90;;
62037;SDS011;47991;42.974;12.082;2022-10-31T10:46:19;8.50;;;2.60;;
62037;SDS011;47991;42.974;12.082;2022-10-31T10:49:16;8.40;;;2.70;;
62037;SDS011;47991;42.974;12.082;2022-10-31T10:55:09;7.70;;;2.80;;
62037;SDS011;47991;42.974;12.082;2022-10-31T10:58:00;6.40;;;2.50;;
62037;SDS011;47991;42.974;12.082;2022-10-31T11:00:30;6.30;;;2.70;;
62037;SDS011;47991;42.974;12.082;2022-10-31T11:03:02;8.50;;;2.80;;
62037;SDS011;47991;42.974;12.082;2022-10-31T11:05:50;7.00;;;3.10;;
62037;SDS011;47991;42.974;12.082;2022-10-31T11:08:29;8.30;;;2.50;;
62037;SDS011;47991;42.974;12.082;2022-10-31T11:13:35;7.40;;;2.70;;
62037;SDS011;47991;42.974;12.082;2022-10-31T11:18:53;8.50;;;3.10;;
62037;SDS011;47991;42.974;12.082;2022-10-31T11:21:32;7.50;;;2.60;;
62037;SDS011;47991;42.974;12.082;2022-10-31T11:24:23;7.60;;;2.80;;
62037;SDS011;47991;42.974;12.082;2022-10-31T11:26:50;6.90;;;2.50;;
62037;SDS011;47991;42.974;12.082;2022-10-31T11:29:25;8.20;;;2.50;;
62037;SDS011;47991;42.974;12.082;2022-10-31T11:31:53;8.70;;;2.90;;
62037;SDS011;47991;42.974;12.082;2022-10-31T11:34:27;10.50;;;2.90;;
62037;SDS011;47991;42.974;12.082;2022-10-31T11:37:12;6.00;;;2.30;;
62037;SDS011;47991;42.974;12.082;2022-10-31T11:39:43;9.00;;;2.80;;
62037;SDS011;47991;42.974;12.082;2022-10-31T11:42:16;6.40;;;3.10;;
62037;SDS011;47991;42.974;12.082;2022-10-31T11:44:43;6.10;;;2.80;;
62037;SDS011;47991;42.974;12.082;2022-10-31T11:47:15;8.00;;;2.70;;
62037;SDS011;47991;42.974;12.082;2022-10-31T11:49:45;8.60;;;3.30;;
62037;SDS011;47991;42.974;12.082;2022-10-31T11:54:53;8.10;;;2.90;;
62037;SDS011;47991;42.974;12.082;2022-10-31T11:57:32;7.60;;;2.90;;
62037;SDS011;47991;42.974;12.082;2022-10-31T12:00:32;8.80;;;3.10;;
62037;SDS011;47991;42.974;12.082;2022-10-31T12:05:50;8.10;;;3.20;;
62037;SDS011;47991;42.974;12.082;2022-10-31T12:08:31;8.20;;;3.00;;
62037;SDS011;47991;42.974;12.082;2022-10-31T12:11:11;5.60;;;2.50;;
62037;SDS011;47991;42.974;12.082;2022-10-31T12:14:04;7.50;;;3.20;;
62037;SDS011;47991;42.974;12.082;2022-10-31T12:23:06;8.60;;;2.70;;
62037;SDS011;47991;42.974;12.082;2022-10-31T12:25:51;11.50;;;3.70;;
62037;SDS011;47991;42.974;12.082;2022-10-31T12:31:28;8.30;;;2.70;;
62037;SDS011;47991;42.974;12.082;2022-10-31T12:34:19;7.30;;;2.90;;
62037;SDS011;47991;42.974;12.082;2022-10-31T12:40:10;10.20;;;2.60;;
62037;SDS011;47991;42.974;12.082;2022-10-31T12:45:35;12.80;;;3.30;;
62037;SDS011;47991;42.974;12.082;2022-10-31T12:51:06;6.00;;;2.60;;
62037;SDS011;47991;42.974;12.082;2022-10-31T12:59:38;9.10;;;2.60;;
62037;SDS011;47991;42.974;12.082;2022-10-31T13:05:19;8.30;;;2.80;;
62037;SDS011;47991;42.974;12.082;2022-10-31T13:08:03;7.40;;;2.60;;
62037;SDS011;47991;42.974;12.082;2022-10-31T13:13:05;5.60;;;2.50;;
62037;SDS011;47991;42.974;12.082;2022-10-31T13:15:47;8.20;;;3.10;;
62037;SDS011;47991;42.974;12.082;2022-10-31T13:18:33;6.80;;;2.60;;
62037;SDS011;47991;42.974;12.082;2022-10-31T13:21:20;7.30;;;3.10;;
62037;SDS011;47991;42.974;12.082;2022-10-31T13:23:51;7.50;;;2.70;;
62037;SDS011;47991;42.974;12.082;2022-10-31T13:26:21;9.10;;;2.80;;
62037;SDS011;47991;42.974;12.082;2022-10-31T13:29:27;9.10;;;3.20;;
62037;SDS011;47991;42.974;12.082;2022-10-31T13:34:39;6.60;;;3.60;;
62037;SDS011;47991;42.974;12.082;2022-10-31T13:41:06;9.60;;;3.20;;
62037;SDS011;47991;42.974;12.082;2022-10-31T13:45:56;7.70;;;3.00;;
62037;SDS011;47991;42.974;12.082;2022-10-31T13:51:02;7.40;;;3.20;;
62037;SDS011;47991;42.974;12.082;2022-10-31T13:53:37;8.20;;;3.10;;
62037;SDS011;47991;42.974;12.082;2022-10-31T14:01:30;7.10;;;2.60;;
62037;SDS011;47991;42.974;12.082;2022-10-31T14:04:00;9.40;;;2.60;;
62037;SDS011;47991;42.974;12.082;2022-10-31T14:06:38;10.60;;;3.10;;
62037;SDS011;47991;42.974;12.082;2022-10-31T14:09:20;6.70;;;2.80;;
62037;SDS011;47991;42.974;12.082;2022-10-31T14:11:49;5.60;;;2.60;;
62037;SDS011;47991;42.974;12.082;2022-10-31T14:14:18;6.90;;;2.80;;
62037;SDS011;47991;42.974;12.082;2022-10-31T14:16:53;10.20;;;3.20;;
62037;SDS011;47991;42.974;12.082;2022-10-31T14:19:23;7.40;;;3.10;;
62037;SDS011;47991;42.974;12.082;2022-10-31T14:21:52;6.70;;;2.60;;
62037;SDS011;47991;42.974;12.082;2022-10-31T14:26:55;7.50;;;2.70;;
62037;SDS011;47991;42.974;12.082;2022-10-31T14:29:32;8.70;;;2.60;;
62037;SDS011;47991;42.974;12.082;2022-10-31T14:37:24;7.90;;;2.80;;
62037;SDS011;47991;42.974;12.082;2022-10-31T14:51:18;9.90;;;2.60;;
62037;SDS011;47991;42.974;12.082;2022-10-31T14:53:55;9.60;;;2.50;;
62037;SDS011;47991;42.974;12.082;2022-10-31T14:56:28;8.90;;;2.80;;
62037;SDS011;47991;42.974;12.082;2022-10-31T14:58:59;12.20;;;2.90;;
62037;SDS011;47991;42.974;12.082;2022-10-31T15:01:31;10.00;;;3.00;;
62037;SDS011;47991;42.974;12.082;2022-10-31T15:04:07;7.00;;;2.50;;
62037;SDS011;47991;42.974;12.082;2022-10-31T15:06:46;12.90;;;2.70;;
62037;SDS011;47991;42.974;12.082;2022-10-31T15:09:23;10.20;;;2.70;;
62037;SDS011;47991;42.974;12.082;2022-10-31T15:12:16;8.70;;;2.80;;
62037;SDS011;47991;42.974;12.082;2022-10-31T15:14:48;10.00;;;2.80;;
62037;SDS011;47991;42.974;12.082;2022-10-31T15:17:16;9.50;;;2.50;;
62037;SDS011;47991;42.974;12.082;2022-10-31T15:19:45;10.70;;;2.50;;
62037;SDS011;47991;42.974;12.082;2022-10-31T15:22:19;8.90;;;2.70;;
62037;SDS011;47991;42.974;12.082;2022-10-31T15:24:49;8.40;;;2.60;;
62037;SDS011;47991;42.974;12.082;2022-10-31T15:27:23;7.30;;;2.80;;
62037;SDS011;47991;42.974;12.082;2022-10-31T15:29:54;9.00;;;2.90;;
62037;SDS011;47991;42.974;12.082;2022-10-31T15:32:24;10.70;;;3.10;;
62037;SDS011;47991;42.974;12.082;2022-10-31T15:34:53;11.50;;;2.90;;
62037;SDS011;47991;42.974;12.082;2022-10-31T15:37:24;47.60;;;5.70;;
62037;SDS011;47991;42.974;12.082;2022-10-31T15:39:53;40.00;;;4.80;;
62037;SDS011;47991;42.974;12.082;2022-10-31T15:47:39;10.00;;;3.30;;
62037;SDS011;47991;42.974;12.082;2022-10-31T15:50:39;9.40;;;3.00;;
62037;SDS011;47991;42.974;12.082;2022-10-31T15:53:19;7.90;;;2.60;;
62037;SDS011;47991;42.974;12.082;2022-10-31T15:56:04;7.20;;;2.90;;
62037;SDS011;47991;42.974;12.082;2022-10-31T15:58:39;9.70;;;2.70;;
62037;SDS011;47991;42.974;12.082;2022-10-31T16:03:59;8.00;;;2.70;;
62037;SDS011;47991;42.974;12.082;2022-10-31T16:06:39;5.60;;;2.40;;
62037;SDS011;47991;42.974;12.082;2022-10-31T16:09:22;8.60;;;3.30;;
62037;SDS011;47991;42.974;12.082;2022-10-31T16:11:50;9.40;;;3.30;;
62037;SDS011;47991;42.974;12.082;2022-10-31T16:14:19;8.10;;;3.00;;
62037;SDS011;47991;42.974;12.082;2022-10-31T16:16:51;9.30;;;3.20;;
62037;SDS011;47991;42.974;12.082;2022-10-31T16:19:32;7.90;;;2.90;;
62037;SDS011;47991;42.974;12.082;2022-10-31T16:22:12;8.10;;;2.80;;
62037;SDS011;47991;42.974;12.082;2022-10-31T16:24:48;8.70;;;2.70;;
62037;SDS011;47991;42.974;12.082;2022-10-31T16:27:28;5.50;;;2.20;;
62037;SDS011;47991;42.974;12.082;2022-10-31T16:29:59;8.50;;;2.70;;
62037;SDS011;47991;42.974;12.082;2022-10-31T16:32:32;6.30;;;2.40;;
62037;SDS011;47991;42.974;12.082;2022-10-31T16:37:38;7.50;;;2.90;;
62037;SDS011;47991;42.974;12.082;2022-10-31T16:40:11;6.90;;;2.50;;
62037;SDS011;47991;42.974;12.082;2022-10-31T16:42:40;9.80;;;3.10;;
62037;SDS011;47991;42.974;12.082;2022-10-31T16:45:13;8.50;;;3.00;;
62037;SDS011;47991;42.974;12.082;2022-10-31T16:47:46;8.90;;;3.00;;
62037;SDS011;47991;42.974;12.082;2022-10-31T16:50:16;6.80;;;2.30;;
62037;SDS011;47991;42.974;12.082;2022-10-31T16:52:46;7.20;;;2.70;;
62037;SDS011;47991;42.974;12.082;2022-10-31T16:55:14;9.40;;;2.70;;
62037;SDS011;47991;42.974;12.082;2022-10-31T16:57:44;7.60;;;2.40;;
62037;SDS011;47991;42.974;12.082;2022-10-31T17:00:17;8.80;;;2.80;;
62037;SDS011;47991;42.974;12.082;2022-10-31T17:02:46;8.10;;;2.40;;
62037;SDS011;47991;42.974;12.082;2022-10-31T17:05:16;8.70;;;2.90;;
62037;SDS011;47991;42.974;12.082;2022-10-31T17:07:45;11.90;;;3.10;;
62037;SDS011;47991;42.974;12.082;2022-10-31T17:10:13;8.40;;;3.00;;
62037;SDS011;47991;42.974;12.082;2022-10-31T17:12:43;9.30;;;3.10;;
62037;SDS011;47991;42.974;12.082;2022-10-31T17:15:15;8.40;;;2.80;;
62037;SDS011;47991;42.974;12.082;2022-10-31T17:17:45;8.10;;;2.80;;
62037;SDS011;47991;42.974;12.082;2022-10-31T17:20:17;7.60;;;2.70;;
62037;SDS011;47991;42.974;12.082;2022-10-31T17:22:47;7.10;;;3.20;;
62037;SDS011;47991;42.974;12.082;2022-10-31T17:25:15;5.60;;;2.40;;
62037;SDS011;47991;42.974;12.082;2022-10-31T17:27:44;9.00;;;2.50;;
62037;SDS011;47991;42.974;12.082;2022-10-31T17:30:12;10.20;;;3.00;;
62037;SDS011;47991;42.974;12.082;2022-10-31T17:32:41;12.20;;;2.90;;
62037;SDS011;47991;42.974;12.082;2022-10-31T17:35:08;12.40;;;2.80;;
62037;SDS011;47991;42.974;12.082;2022-10-31T17:37:36;8.50;;;3.10;;
62037;SDS011;47991;42.974;12.082;2022-10-31T17:40:04;10.20;;;3.00;;
62037;SDS011;47991;42.974;12.082;2022-10-31T17:42:32;8.30;;;3.30;;
62037;SDS011;47991;42.974;12.082;2022-10-31T17:44:59;8.00;;;3.00;;
62037;SDS011;47991;42.974;12.082;2022-10-31T17:47:27;9.40;;;3.10;;
62037;SDS011;47991;42.974;12.082;2022-10-31T17:49:54;9.10;;;3.50;;